Alto, NM

7:00 AM MDT on September 21, 2014 (GMT -0600)
Alamogordo-White Sands Regional | Change Station
CLOSE
Current Station
Airport
Location: Alamogordo,
Elevation: 4196 ft
Nearby Weather Stations
Active Advisory: Flash Flood Watch

Elev 4196 ft 32.84 °N, 105.99 °W | Updated 25 minutes ago

Partly Cloudy
Partly Cloudy
64 °F
Feels Like 64 °F
N
4
Wind Variable Wind from NNE

Today
High -- | Low -- °F
--% Chance of Precip.
Yesterday
High -- | Low -- °F
Precip. -- in
6:50 AM 7:00 PM
Waning Crescent, 7% visible
Pressure 30.16 in
Visibility 10.0 miles
Clouds Clear
Dew Point 59 °F
Humidity 83%
Rainfall 0.00 in
Snow Depth 0 in , 3 in , 1 in
UV 0 out of 12
Pollen 7.30 out of 12
Air Quality Not available.
Flu Activity Not available.
METAR KALM 211235Z AUTO 02003KT 10SM CLR 18/15 A3016 RMK AO2 LTG DSNT E

More Conditions Fewer Conditions

Pressure 30.16 in
Visibility 10.0 miles
Clouds Clear
Dew Point 59 °F
Humidity 83%
Rainfall 0.00 in
Snow Depth 0 in , 3 in , 1 in
UV 0 out of 12
Pollen 7.30 out of 12
Air Quality Not available.
Flu Activity Not available.
METAR KALM 211235Z AUTO 02003KT 10SM CLR 18/15 A3016 RMK AO2 LTG DSNT E

More Conditions Fewer Conditions

Nowcast | as of 5:00 am MDT on September 21, 2014

Through 7 am MDT...scattered showers and isolated thunderstorms will continue to drift to the west at 10 to 15 mph across Chaves County as well as the southeast half of Lincoln County. Rainfall amounts with this activity should range from a few hundredths of an inch to as much as a half inch. Other isolated shower or storm development would not be out of the question immediately surrounding this present activity. Some locales potentially affected include Lake Arthur... Roswell...Dunken...Arabela...Picacho and Ruidoso.

×

10-Day Weather Forecast

Almanac

Astronomy

Sep. 21, 2014 Rise Set
Actual Time 6:50 AM MDT 7:00 PM MDT
Civil Twilight 6:25 AM MDT 7:25 PM MDT
Nautical Twilight 5:56 AM MDT 7:54 PM MDT
Astronomical Twilight 5:27 AM MDT 8:23 PM MDT
Moon 4:31 AM MDT 5:33 PM MDT
Length of Visible Light 13h 00m
Length of Day
12h 10m
Tomorrow will be 2m 3s shorter.
Waning Crescent, 7% of the Moon is Illuminated
Today
Waning Crescent
Sep 24
New
Oct 1
First Quarter
Oct 8
Full
Oct 15
Last Quarter

Today's Extremes

State Highs State Lows

Community

WunderPhotos

Upload Photos

1,755,134 photos uploaded!

Nearby

Snow Depth

Station Depth Elevation
Hopewell 0 in 10000 ft
Wesner Springs 3 in 11120 ft
Silver Creek Divide 1 in 9000 ft
Signal Peak 1 in 8360 ft
Sierra Blanca 1 in 10280 ft

Earthquake Activity

City Distance Mag. Time & Date
No recent earthquake activity has been reported nearby.
Minimum magnitude displayed is 2.5.

Coastal Water Temperatures

Place Temperature
No Stations Reporting

Nearby Weather Stations